sensor_id;sensor_type;location;lat;lon;timestamp;P1;durP1;ratioP1;P2;durP2;ratioP2
21110;SDS011;10713;51.912;4.494;2022-12-16T00:01:10;11.48;;;5.03;;
21110;SDS011;10713;51.912;4.494;2022-12-16T00:03:40;8.15;;;4.90;;
21110;SDS011;10713;51.912;4.494;2022-12-16T00:06:08;10.23;;;5.22;;
21110;SDS011;10713;51.912;4.494;2022-12-16T00:08:35;9.55;;;4.75;;
21110;SDS011;10713;51.912;4.494;2022-12-16T00:11:02;13.05;;;4.72;;
21110;SDS011;10713;51.912;4.494;2022-12-16T00:13:29;7.75;;;4.07;;
21110;SDS011;10713;51.912;4.494;2022-12-16T00:15:55;7.97;;;4.43;;
21110;SDS011;10713;51.912;4.494;2022-12-16T00:18:21;8.68;;;4.07;;
21110;SDS011;10713;51.912;4.494;2022-12-16T00:20:48;7.35;;;4.32;;
21110;SDS011;10713;51.912;4.494;2022-12-16T00:23:16;10.98;;;4.45;;
21110;SDS011;10713;51.912;4.494;2022-12-16T00:25:42;5.95;;;4.18;;
21110;SDS011;10713;51.912;4.494;2022-12-16T00:28:09;10.52;;;4.32;;
21110;SDS011;10713;51.912;4.494;2022-12-16T00:30:34;7.45;;;3.60;;
21110;SDS011;10713;51.912;4.494;2022-12-16T00:33:00;7.40;;;3.67;;
21110;SDS011;10713;51.912;4.494;2022-12-16T00:35:25;5.88;;;3.08;;
21110;SDS011;10713;51.912;4.494;2022-12-16T00:37:51;7.22;;;3.38;;
21110;SDS011;10713;51.912;4.494;2022-12-16T00:40:16;5.80;;;3.25;;
21110;SDS011;10713;51.912;4.494;2022-12-16T00:42:41;6.68;;;3.03;;
21110;SDS011;10713;51.912;4.494;2022-12-16T00:45:07;6.50;;;3.05;;
21110;SDS011;10713;51.912;4.494;2022-12-16T00:47:32;6.07;;;3.10;;
21110;SDS011;10713;51.912;4.494;2022-12-16T00:49:58;10.13;;;2.80;;
21110;SDS011;10713;51.912;4.494;2022-12-16T00:52:23;9.60;;;3.03;;
21110;SDS011;10713;51.912;4.494;2022-12-16T00:54:48;7.03;;;3.05;;
21110;SDS011;10713;51.912;4.494;2022-12-16T00:57:14;4.80;;;2.65;;
21110;SDS011;10713;51.912;4.494;2022-12-16T00:59:39;7.28;;;2.88;;
21110;SDS011;10713;51.912;4.494;2022-12-16T01:02:04;5.05;;;2.60;;
21110;SDS011;10713;51.912;4.494;2022-12-16T01:04:30;5.05;;;2.83;;
21110;SDS011;10713;51.912;4.494;2022-12-16T01:06:55;4.78;;;2.70;;
21110;SDS011;10713;51.912;4.494;2022-12-16T01:09:20;5.82;;;2.58;;
21110;SDS011;10713;51.912;4.494;2022-12-16T01:11:46;5.45;;;3.00;;
21110;SDS011;10713;51.912;4.494;2022-12-16T01:14:11;7.25;;;2.60;;
21110;SDS011;10713;51.912;4.494;2022-12-16T01:16:37;6.90;;;2.67;;
21110;SDS011;10713;51.912;4.494;2022-12-16T01:19:02;6.20;;;2.53;;
21110;SDS011;10713;51.912;4.494;2022-12-16T01:21:28;6.22;;;2.40;;
21110;SDS011;10713;51.912;4.494;2022-12-16T01:23:53;4.65;;;2.40;;
21110;SDS011;10713;51.912;4.494;2022-12-16T01:26:18;6.47;;;2.40;;
21110;SDS011;10713;51.912;4.494;2022-12-16T01:28:45;4.80;;;2.35;;
21110;SDS011;10713;51.912;4.494;2022-12-16T01:31:12;5.10;;;2.50;;
21110;SDS011;10713;51.912;4.494;2022-12-16T01:33:40;8.68;;;2.65;;
21110;SDS011;10713;51.912;4.494;2022-12-16T01:36:06;5.18;;;2.50;;
21110;SDS011;10713;51.912;4.494;2022-12-16T01:38:33;5.40;;;2.72;;
21110;SDS011;10713;51.912;4.494;2022-12-16T01:40:59;6.80;;;2.50;;
21110;SDS011;10713;51.912;4.494;2022-12-16T01:43:29;7.13;;;2.55;;
21110;SDS011;10713;51.912;4.494;2022-12-16T01:46:00;7.35;;;2.47;;
21110;SDS011;10713;51.912;4.494;2022-12-16T01:51:49;8.02;;;2.67;;
21110;SDS011;10713;51.912;4.494;2022-12-16T01:54:00;7.22;;;2.50;;
21110;SDS011;10713;51.912;4.494;2022-12-16T01:56:31;8.43;;;2.70;;
21110;SDS011;10713;51.912;4.494;2022-12-16T01:58:59;7.75;;;2.90;;
21110;SDS011;10713;51.912;4.494;2022-12-16T02:01:25;8.50;;;2.55;;
21110;SDS011;10713;51.912;4.494;2022-12-16T02:03:51;9.18;;;2.53;;
21110;SDS011;10713;51.912;4.494;2022-12-16T02:06:20;10.95;;;3.17;;
21110;SDS011;10713;51.912;4.494;2022-12-16T02:08:46;12.93;;;2.83;;
21110;SDS011;10713;51.912;4.494;2022-12-16T02:11:20;7.07;;;2.45;;
21110;SDS011;10713;51.912;4.494;2022-12-16T02:36:02;5.47;;;1.98;;
21110;SDS011;10713;51.912;4.494;2022-12-16T02:38:47;7.13;;;2.17;;
21110;SDS011;10713;51.912;4.494;2022-12-16T02:41:17;7.60;;;2.38;;
21110;SDS011;10713;51.912;4.494;2022-12-16T02:43:54;6.10;;;1.80;;
21110;SDS011;10713;51.912;4.494;2022-12-16T02:46:24;13.40;;;2.65;;
21110;SDS011;10713;51.912;4.494;2022-12-16T02:48:52;4.35;;;1.60;;
21110;SDS011;10713;51.912;4.494;2022-12-16T02:51:18;9.02;;;1.90;;
21110;SDS011;10713;51.912;4.494;2022-12-16T02:53:44;4.88;;;1.58;;
21110;SDS011;10713;51.912;4.494;2022-12-16T02:56:23;6.20;;;1.90;;
21110;SDS011;10713;51.912;4.494;2022-12-16T02:59:06;6.88;;;2.22;;
21110;SDS011;10713;51.912;4.494;2022-12-16T03:04:20;7.68;;;1.80;;
21110;SDS011;10713;51.912;4.494;2022-12-16T03:06:49;6.85;;;1.80;;
21110;SDS011;10713;51.912;4.494;2022-12-16T03:09:21;10.25;;;1.80;;
21110;SDS011;10713;51.912;4.494;2022-12-16T03:11:56;18.42;;;2.17;;
21110;SDS011;10713;51.912;4.494;2022-12-16T03:14:24;7.25;;;1.98;;
21110;SDS011;10713;51.912;4.494;2022-12-16T03:16:52;9.57;;;1.63;;
21110;SDS011;10713;51.912;4.494;2022-12-16T03:19:19;5.50;;;1.90;;
21110;SDS011;10713;51.912;4.494;2022-12-16T03:21:51;12.80;;;2.15;;
21110;SDS011;10713;51.912;4.494;2022-12-16T03:24:23;9.82;;;1.92;;
21110;SDS011;10713;51.912;4.494;2022-12-16T03:26:55;7.30;;;2.03;;
21110;SDS011;10713;51.912;4.494;2022-12-16T03:32:09;7.88;;;1.83;;
21110;SDS011;10713;51.912;4.494;2022-12-16T03:37:06;3.85;;;1.63;;
21110;SDS011;10713;51.912;4.494;2022-12-16T03:39:45;5.30;;;1.63;;
21110;SDS011;10713;51.912;4.494;2022-12-16T03:42:13;4.55;;;1.85;;
21110;SDS011;10713;51.912;4.494;2022-12-16T03:44:39;6.88;;;1.75;;
21110;SDS011;10713;51.912;4.494;2022-12-16T03:47:10;4.97;;;1.60;;
21110;SDS011;10713;51.912;4.494;2022-12-16T03:49:35;5.75;;;1.60;;
21110;SDS011;10713;51.912;4.494;2022-12-16T03:52:01;7.63;;;2.20;;
21110;SDS011;10713;51.912;4.494;2022-12-16T03:54:26;7.40;;;1.80;;
21110;SDS011;10713;51.912;4.494;2022-12-16T03:56:52;5.05;;;1.42;;
21110;SDS011;10713;51.912;4.494;2022-12-16T03:59:18;3.90;;;1.30;;
21110;SDS011;10713;51.912;4.494;2022-12-16T04:01:43;10.15;;;1.92;;
21110;SDS011;10713;51.912;4.494;2022-12-16T04:04:09;8.85;;;2.15;;
21110;SDS011;10713;51.912;4.494;2022-12-16T04:06:34;4.22;;;1.40;;
21110;SDS011;10713;51.912;4.494;2022-12-16T04:08:59;7.40;;;1.65;;
21110;SDS011;10713;51.912;4.494;2022-12-16T04:11:25;7.25;;;1.73;;
21110;SDS011;10713;51.912;4.494;2022-12-16T04:14:09;18.10;;;2.30;;
21110;SDS011;10713;51.912;4.494;2022-12-16T04:16:53;7.65;;;1.50;;
21110;SDS011;10713;51.912;4.494;2022-12-16T04:19:37;8.10;;;1.50;;
21110;SDS011;10713;51.912;4.494;2022-12-16T04:22:25;5.78;;;1.75;;
21110;SDS011;10713;51.912;4.494;2022-12-16T04:25:17;5.03;;;1.55;;
21110;SDS011;10713;51.912;4.494;2022-12-16T04:27:46;10.90;;;1.83;;
21110;SDS011;10713;51.912;4.494;2022-12-16T04:30:12;3.15;;;1.45;;
21110;SDS011;10713;51.912;4.494;2022-12-16T04:32:58;7.38;;;2.17;;
21110;SDS011;10713;51.912;4.494;2022-12-16T04:35:45;4.20;;;1.42;;
21110;SDS011;10713;51.912;4.494;2022-12-16T04:38:29;4.38;;;1.73;;
21110;SDS011;10713;51.912;4.494;2022-12-16T04:41:13;8.00;;;1.95;;
21110;SDS011;10713;51.912;4.494;2022-12-16T04:43:57;5.18;;;1.73;;
21110;SDS011;10713;51.912;4.494;2022-12-16T04:46:41;7.78;;;2.15;;
21110;SDS011;10713;51.912;4.494;2022-12-16T04:49:25;6.90;;;2.00;;
21110;SDS011;10713;51.912;4.494;2022-12-16T04:52:09;8.45;;;2.10;;
21110;SDS011;10713;51.912;4.494;2022-12-16T04:54:53;7.07;;;2.30;;
21110;SDS011;10713;51.912;4.494;2022-12-16T04:57:37;6.82;;;2.47;;
21110;SDS011;10713;51.912;4.494;2022-12-16T05:00:21;7.25;;;2.15;;
21110;SDS011;10713;51.912;4.494;2022-12-16T05:03:05;7.68;;;2.20;;
21110;SDS011;10713;51.912;4.494;2022-12-16T05:05:49;10.75;;;2.17;;
21110;SDS011;10713;51.912;4.494;2022-12-16T05:08:33;5.47;;;2.10;;
21110;SDS011;10713;51.912;4.494;2022-12-16T05:11:17;6.70;;;2.20;;
21110;SDS011;10713;51.912;4.494;2022-12-16T05:14:01;8.38;;;2.25;;
21110;SDS011;10713;51.912;4.494;2022-12-16T05:16:45;5.90;;;2.15;;
21110;SDS011;10713;51.912;4.494;2022-12-16T05:19:29;9.05;;;1.90;;
21110;SDS011;10713;51.912;4.494;2022-12-16T05:22:13;8.38;;;2.67;;
21110;SDS011;10713;51.912;4.494;2022-12-16T05:24:57;9.88;;;2.28;;
21110;SDS011;10713;51.912;4.494;2022-12-16T05:27:41;6.07;;;2.35;;
21110;SDS011;10713;51.912;4.494;2022-12-16T05:30:25;6.57;;;2.58;;
21110;SDS011;10713;51.912;4.494;2022-12-16T05:33:09;8.38;;;1.98;;
21110;SDS011;10713;51.912;4.494;2022-12-16T05:35:53;7.65;;;2.40;;
21110;SDS011;10713;51.912;4.494;2022-12-16T05:38:37;5.28;;;2.33;;
21110;SDS011;10713;51.912;4.494;2022-12-16T05:41:21;10.10;;;2.53;;
21110;SDS011;10713;51.912;4.494;2022-12-16T05:44:04;4.65;;;2.30;;
21110;SDS011;10713;51.912;4.494;2022-12-16T05:46:48;6.43;;;2.30;;
21110;SDS011;10713;51.912;4.494;2022-12-16T05:49:32;8.65;;;2.67;;
21110;SDS011;10713;51.912;4.494;2022-12-16T05:52:16;8.68;;;2.72;;
21110;SDS011;10713;51.912;4.494;2022-12-16T05:55:00;7.20;;;2.30;;
21110;SDS011;10713;51.912;4.494;2022-12-16T05:57:47;9.95;;;2.90;;
21110;SDS011;10713;51.912;4.494;2022-12-16T06:00:31;9.68;;;2.78;;
21110;SDS011;10713;51.912;4.494;2022-12-16T06:03:15;8.65;;;2.47;;
21110;SDS011;10713;51.912;4.494;2022-12-16T06:05:59;10.70;;;2.92;;
21110;SDS011;10713;51.912;4.494;2022-12-16T06:08:43;7.68;;;2.28;;
21110;SDS011;10713;51.912;4.494;2022-12-16T06:11:27;8.52;;;2.53;;
21110;SDS011;10713;51.912;4.494;2022-12-16T06:14:11;9.07;;;2.60;;
21110;SDS011;10713;51.912;4.494;2022-12-16T06:16:55;12.40;;;3.28;;
21110;SDS011;10713;51.912;4.494;2022-12-16T06:19:39;9.15;;;2.60;;
21110;SDS011;10713;51.912;4.494;2022-12-16T06:22:23;6.85;;;3.10;;
21110;SDS011;10713;51.912;4.494;2022-12-16T06:25:07;9.07;;;2.67;;
21110;SDS011;10713;51.912;4.494;2022-12-16T06:27:51;4.78;;;2.42;;
21110;SDS011;10713;51.912;4.494;2022-12-16T06:30:36;9.50;;;2.63;;
21110;SDS011;10713;51.912;4.494;2022-12-16T06:33:20;7.82;;;2.72;;
21110;SDS011;10713;51.912;4.494;2022-12-16T06:36:04;5.93;;;2.60;;
21110;SDS011;10713;51.912;4.494;2022-12-16T06:38:50;16.98;;;2.95;;
21110;SDS011;10713;51.912;4.494;2022-12-16T06:41:34;4.47;;;2.40;;
21110;SDS011;10713;51.912;4.494;2022-12-16T06:44:18;7.97;;;3.40;;
21110;SDS011;10713;51.912;4.494;2022-12-16T06:47:02;8.32;;;2.83;;
21110;SDS011;10713;51.912;4.494;2022-12-16T06:49:45;8.93;;;2.80;;
21110;SDS011;10713;51.912;4.494;2022-12-16T06:52:29;8.65;;;3.45;;
21110;SDS011;10713;51.912;4.494;2022-12-16T06:55:13;9.32;;;3.10;;
21110;SDS011;10713;51.912;4.494;2022-12-16T06:57:57;11.32;;;2.75;;
21110;SDS011;10713;51.912;4.494;2022-12-16T07:00:41;12.85;;;3.78;;
21110;SDS011;10713;51.912;4.494;2022-12-16T07:03:25;5.90;;;3.15;;
21110;SDS011;10713;51.912;4.494;2022-12-16T07:06:09;11.70;;;3.40;;
21110;SDS011;10713;51.912;4.494;2022-12-16T07:08:53;9.23;;;3.10;;
21110;SDS011;10713;51.912;4.494;2022-12-16T07:11:37;9.00;;;3.25;;
21110;SDS011;10713;51.912;4.494;2022-12-16T07:14:21;15.35;;;4.03;;
21110;SDS011;10713;51.912;4.494;2022-12-16T07:17:05;8.88;;;3.22;;
21110;SDS011;10713;51.912;4.494;2022-12-16T07:19:49;10.27;;;3.72;;
21110;SDS011;10713;51.912;4.494;2022-12-16T07:22:33;10.13;;;3.50;;
21110;SDS011;10713;51.912;4.494;2022-12-16T07:25:17;8.63;;;3.55;;
21110;SDS011;10713;51.912;4.494;2022-12-16T07:28:01;10.52;;;3.35;;
21110;SDS011;10713;51.912;4.494;2022-12-16T07:30:45;10.30;;;3.92;;
21110;SDS011;10713;51.912;4.494;2022-12-16T07:33:29;11.85;;;3.75;;
21110;SDS011;10713;51.912;4.494;2022-12-16T07:36:13;10.52;;;3.70;;
21110;SDS011;10713;51.912;4.494;2022-12-16T07:38:57;8.63;;;3.63;;
21110;SDS011;10713;51.912;4.494;2022-12-16T07:41:41;13.50;;;3.67;;
21110;SDS011;10713;51.912;4.494;2022-12-16T07:44:24;13.82;;;3.47;;
21110;SDS011;10713;51.912;4.494;2022-12-16T07:47:08;7.13;;;3.58;;
21110;SDS011;10713;51.912;4.494;2022-12-16T07:49:52;8.27;;;3.50;;
21110;SDS011;10713;51.912;4.494;2022-12-16T07:52:36;11.57;;;3.50;;
21110;SDS011;10713;51.912;4.494;2022-12-16T07:55:20;7.38;;;3.20;;
21110;SDS011;10713;51.912;4.494;2022-12-16T07:58:04;12.75;;;3.70;;
21110;SDS011;10713;51.912;4.494;2022-12-16T08:00:48;11.25;;;3.33;;
21110;SDS011;10713;51.912;4.494;2022-12-16T08:03:32;12.52;;;3.58;;
21110;SDS011;10713;51.912;4.494;2022-12-16T08:06:15;12.02;;;3.42;;
21110;SDS011;10713;51.912;4.494;2022-12-16T08:08:59;8.65;;;3.20;;
21110;SDS011;10713;51.912;4.494;2022-12-16T08:11:43;13.40;;;3.75;;
21110;SDS011;10713;51.912;4.494;2022-12-16T08:14:27;8.88;;;3.40;;
21110;SDS011;10713;51.912;4.494;2022-12-16T08:17:11;7.82;;;2.65;;
21110;SDS011;10713;51.912;4.494;2022-12-16T08:19:55;8.95;;;3.65;;
21110;SDS011;10713;51.912;4.494;2022-12-16T08:22:39;15.68;;;4.20;;
21110;SDS011;10713;51.912;4.494;2022-12-16T08:25:23;10.05;;;3.53;;
21110;SDS011;10713;51.912;4.494;2022-12-16T08:28:07;6.50;;;2.92;;
21110;SDS011;10713;51.912;4.494;2022-12-16T08:30:51;7.07;;;3.08;;
21110;SDS011;10713;51.912;4.494;2022-12-16T08:33:35;10.52;;;3.10;;
21110;SDS011;10713;51.912;4.494;2022-12-16T08:36:23;8.95;;;3.40;;
21110;SDS011;10713;51.912;4.494;2022-12-16T08:39:07;10.25;;;3.47;;
21110;SDS011;10713;51.912;4.494;2022-12-16T08:41:51;6.88;;;3.95;;
21110;SDS011;10713;51.912;4.494;2022-12-16T08:44:35;16.13;;;4.18;;
21110;SDS011;10713;51.912;4.494;2022-12-16T08:47:19;11.98;;;4.45;;
21110;SDS011;10713;51.912;4.494;2022-12-16T08:50:03;13.60;;;3.80;;
21110;SDS011;10713;51.912;4.494;2022-12-16T08:52:48;9.02;;;3.78;;
21110;SDS011;10713;51.912;4.494;2022-12-16T08:55:32;12.48;;;3.97;;
21110;SDS011;10713;51.912;4.494;2022-12-16T08:58:16;10.38;;;4.20;;
21110;SDS011;10713;51.912;4.494;2022-12-16T09:01:00;11.90;;;4.07;;
21110;SDS011;10713;51.912;4.494;2022-12-16T09:03:44;8.10;;;3.88;;
21110;SDS011;10713;51.912;4.494;2022-12-16T09:06:28;13.63;;;4.22;;
21110;SDS011;10713;51.912;4.494;2022-12-16T09:09:12;9.93;;;4.10;;
21110;SDS011;10713;51.912;4.494;2022-12-16T09:11:56;10.65;;;4.22;;
21110;SDS011;10713;51.912;4.494;2022-12-16T09:14:39;7.72;;;3.42;;
21110;SDS011;10713;51.912;4.494;2022-12-16T09:17:23;13.25;;;3.47;;
21110;SDS011;10713;51.912;4.494;2022-12-16T09:20:07;7.72;;;3.55;;
21110;SDS011;10713;51.912;4.494;2022-12-16T09:22:52;8.70;;;3.33;;
21110;SDS011;10713;51.912;4.494;2022-12-16T09:25:36;7.50;;;3.78;;
21110;SDS011;10713;51.912;4.494;2022-12-16T09:28:20;9.27;;;3.55;;
21110;SDS011;10713;51.912;4.494;2022-12-16T09:31:04;12.25;;;3.58;;
21110;SDS011;10713;51.912;4.494;2022-12-16T09:34:04;8.25;;;2.97;;
21110;SDS011;10713;51.912;4.494;2022-12-16T09:36:48;8.38;;;2.90;;
21110;SDS011;10713;51.912;4.494;2022-12-16T09:39:32;6.85;;;2.83;;
21110;SDS011;10713;51.912;4.494;2022-12-16T09:42:22;9.57;;;2.65;;
21110;SDS011;10713;51.912;4.494;2022-12-16T09:51:13;7.63;;;3.20;;
21110;SDS011;10713;51.912;4.494;2022-12-16T09:53:58;10.73;;;3.90;;
21110;SDS011;10713;51.912;4.494;2022-12-16T09:56:44;9.07;;;3.50;;
21110;SDS011;10713;51.912;4.494;2022-12-16T09:59:30;9.00;;;3.20;;
21110;SDS011;10713;51.912;4.494;2022-12-16T10:02:20;6.53;;;3.10;;
21110;SDS011;10713;51.912;4.494;2022-12-16T10:05:14;5.85;;;2.97;;
21110;SDS011;10713;51.912;4.494;2022-12-16T10:11:07;11.98;;;3.47;;
21110;SDS011;10713;51.912;4.494;2022-12-16T10:14:09;9.05;;;3.17;;
21110;SDS011;10713;51.912;4.494;2022-12-16T10:20:04;9.20;;;3.85;;
21110;SDS011;10713;51.912;4.494;2022-12-16T10:26:09;8.52;;;3.50;;
21110;SDS011;10713;51.912;4.494;2022-12-16T10:29:06;13.07;;;3.58;;
21110;SDS011;10713;51.912;4.494;2022-12-16T10:31:55;8.50;;;3.33;;
21110;SDS011;10713;51.912;4.494;2022-12-16T10:34:39;10.40;;;3.70;;
21110;SDS011;10713;51.912;4.494;2022-12-16T10:37:31;6.78;;;3.58;;
21110;SDS011;10713;51.912;4.494;2022-12-16T10:40:32;6.82;;;3.20;;
21110;SDS011;10713;51.912;4.494;2022-12-16T10:43:21;8.48;;;3.47;;
21110;SDS011;10713;51.912;4.494;2022-12-16T10:46:18;10.98;;;3.60;;
21110;SDS011;10713;51.912;4.494;2022-12-16T10:49:06;8.18;;;3.17;;
21110;SDS011;10713;51.912;4.494;2022-12-16T10:51:56;8.38;;;3.22;;
21110;SDS011;10713;51.912;4.494;2022-12-16T10:54:45;11.52;;;3.08;;
21110;SDS011;10713;51.912;4.494;2022-12-16T11:00:53;9.10;;;3.25;;
21110;SDS011;10713;51.912;4.494;2022-12-16T11:03:38;8.65;;;3.50;;
21110;SDS011;10713;51.912;4.494;2022-12-16T11:06:36;8.50;;;3.10;;
21110;SDS011;10713;51.912;4.494;2022-12-16T11:09:29;7.45;;;3.00;;
21110;SDS011;10713;51.912;4.494;2022-12-16T11:12:28;14.07;;;3.60;;
21110;SDS011;10713;51.912;4.494;2022-12-16T11:15:17;10.57;;;3.53;;
21110;SDS011;10713;51.912;4.494;2022-12-16T11:18:10;13.02;;;3.85;;
21110;SDS011;10713;51.912;4.494;2022-12-16T11:26:56;14.82;;;3.85;;
21110;SDS011;10713;51.912;4.494;2022-12-16T11:32:38;7.82;;;3.13;;
21110;SDS011;10713;51.912;4.494;2022-12-16T11:35:26;12.13;;;4.00;;
21110;SDS011;10713;51.912;4.494;2022-12-16T11:38:17;13.63;;;4.25;;
21110;SDS011;10713;51.912;4.494;2022-12-16T11:41:20;11.52;;;3.47;;
21110;SDS011;10713;51.912;4.494;2022-12-16T11:44:18;10.20;;;3.83;;
21110;SDS011;10713;51.912;4.494;2022-12-16T11:47:10;8.15;;;3.95;;
21110;SDS011;10713;51.912;4.494;2022-12-16T11:50:04;8.35;;;3.53;;
21110;SDS011;10713;51.912;4.494;2022-12-16T11:52:54;10.35;;;4.22;;
21110;SDS011;10713;51.912;4.494;2022-12-16T11:55:39;8.48;;;3.65;;
21110;SDS011;10713;51.912;4.494;2022-12-16T11:58:38;9.15;;;3.30;;
21110;SDS011;10713;51.912;4.494;2022-12-16T12:04:30;11.05;;;3.85;;
21110;SDS011;10713;51.912;4.494;2022-12-16T12:10:49;9.60;;;3.42;;
21110;SDS011;10713;51.912;4.494;2022-12-16T12:22:38;5.07;;;2.33;;
21110;SDS011;10713;51.912;4.494;2022-12-16T12:31:57;4.80;;;2.30;;
21110;SDS011;10713;51.912;4.494;2022-12-16T12:46:53;7.22;;;3.10;;
21110;SDS011;10713;51.912;4.494;2022-12-16T12:59:20;7.63;;;3.08;;
21110;SDS011;10713;51.912;4.494;2022-12-16T13:02:11;8.98;;;3.53;;
21110;SDS011;10713;51.912;4.494;2022-12-16T13:05:03;15.55;;;3.83;;
21110;SDS011;10713;51.912;4.494;2022-12-16T13:07:48;7.45;;;3.17;;
21110;SDS011;10713;51.912;4.494;2022-12-16T13:10:35;9.20;;;3.63;;
21110;SDS011;10713;51.912;4.494;2022-12-16T13:13:25;6.47;;;3.60;;
21110;SDS011;10713;51.912;4.494;2022-12-16T13:16:13;7.82;;;4.03;;
21110;SDS011;10713;51.912;4.494;2022-12-16T13:22:28;9.40;;;4.05;;
21110;SDS011;10713;51.912;4.494;2022-12-16T13:28:23;9.50;;;3.85;;
21110;SDS011;10713;51.912;4.494;2022-12-16T13:31:11;11.38;;;3.80;;
21110;SDS011;10713;51.912;4.494;2022-12-16T13:33:58;9.45;;;3.90;;
21110;SDS011;10713;51.912;4.494;2022-12-16T13:36:51;9.30;;;4.22;;
21110;SDS011;10713;51.912;4.494;2022-12-16T13:39:37;10.88;;;4.20;;
21110;SDS011;10713;51.912;4.494;2022-12-16T13:42:30;7.85;;;3.75;;
21110;SDS011;10713;51.912;4.494;2022-12-16T13:45:35;7.32;;;3.33;;
21110;SDS011;10713;51.912;4.494;2022-12-16T13:48:34;10.05;;;3.15;;
21110;SDS011;10713;51.912;4.494;2022-12-16T13:54:30;8.80;;;3.20;;
21110;SDS011;10713;51.912;4.494;2022-12-16T13:57:19;8.02;;;3.50;;
21110;SDS011;10713;51.912;4.494;2022-12-16T14:00:15;283.58;;;52.65;;
21110;SDS011;10713;51.912;4.494;2022-12-16T14:03:00;64.72;;;16.20;;
21110;SDS011;10713;51.912;4.494;2022-12-16T14:05:47;18.60;;;5.63;;
21110;SDS011;10713;51.912;4.494;2022-12-16T14:08:33;85.55;;;20.40;;
21110;SDS011;10713;51.912;4.494;2022-12-16T14:14:25;19.33;;;7.00;;
21110;SDS011;10713;51.912;4.494;2022-12-16T14:17:22;73.38;;;16.92;;
21110;SDS011;10713;51.912;4.494;2022-12-16T14:20:15;290.58;;;61.15;;
21110;SDS011;10713;51.912;4.494;2022-12-16T14:26:28;157.88;;;31.52;;
21110;SDS011;10713;51.912;4.494;2022-12-16T14:29:15;21.52;;;6.72;;
21110;SDS011;10713;51.912;4.494;2022-12-16T14:32:28;93.18;;;20.20;;
21110;SDS011;10713;51.912;4.494;2022-12-16T14:35:15;76.15;;;17.88;;
21110;SDS011;10713;51.912;4.494;2022-12-16T14:38:26;114.03;;;26.45;;
21110;SDS011;10713;51.912;4.494;2022-12-16T14:41:17;138.68;;;29.50;;
21110;SDS011;10713;51.912;4.494;2022-12-16T14:44:04;196.30;;;38.35;;
21110;SDS011;10713;51.912;4.494;2022-12-16T14:46:58;67.35;;;16.35;;
21110;SDS011;10713;51.912;4.494;2022-12-16T14:49:50;73.15;;;16.08;;
21110;SDS011;10713;51.912;4.494;2022-12-16T14:52:35;118.15;;;26.65;;
21110;SDS011;10713;51.912;4.494;2022-12-16T14:55:25;99.35;;;21.67;;
21110;SDS011;10713;51.912;4.494;2022-12-16T14:58:15;54.75;;;12.48;;
21110;SDS011;10713;51.912;4.494;2022-12-16T15:01:02;43.95;;;11.05;;
21110;SDS011;10713;51.912;4.494;2022-12-16T15:03:55;22.45;;;6.53;;
21110;SDS011;10713;51.912;4.494;2022-12-16T15:06:40;33.40;;;9.48;;
21110;SDS011;10713;51.912;4.494;2022-12-16T15:09:33;38.65;;;11.13;;
21110;SDS011;10713;51.912;4.494;2022-12-16T15:12:26;35.15;;;10.43;;
21110;SDS011;10713;51.912;4.494;2022-12-16T15:18:17;13.18;;;5.25;;
21110;SDS011;10713;51.912;4.494;2022-12-16T15:21:05;30.67;;;8.32;;
21110;SDS011;10713;51.912;4.494;2022-12-16T15:23:50;17.25;;;6.03;;
21110;SDS011;10713;51.912;4.494;2022-12-16T15:26:34;57.55;;;13.98;;
21110;SDS011;10713;51.912;4.494;2022-12-16T15:29:25;19.98;;;7.50;;
21110;SDS011;10713;51.912;4.494;2022-12-16T15:35:07;27.08;;;7.75;;
21110;SDS011;10713;51.912;4.494;2022-12-16T15:37:51;18.45;;;6.80;;
21110;SDS011;10713;51.912;4.494;2022-12-16T15:40:35;8.13;;;5.03;;
21110;SDS011;10713;51.912;4.494;2022-12-16T15:43:29;15.18;;;5.82;;
21110;SDS011;10713;51.912;4.494;2022-12-16T15:46:22;14.15;;;5.70;;
21110;SDS011;10713;51.912;4.494;2022-12-16T15:52:47;23.90;;;7.63;;
21110;SDS011;10713;51.912;4.494;2022-12-16T15:55:33;15.82;;;6.78;;
21110;SDS011;10713;51.912;4.494;2022-12-16T16:01:11;16.38;;;6.50;;
21110;SDS011;10713;51.912;4.494;2022-12-16T16:03:58;24.40;;;8.48;;
21110;SDS011;10713;51.912;4.494;2022-12-16T16:06:47;21.77;;;7.80;;
21110;SDS011;10713;51.912;4.494;2022-12-16T16:09:33;24.00;;;7.95;;
21110;SDS011;10713;51.912;4.494;2022-12-16T16:12:18;13.73;;;6.72;;
21110;SDS011;10713;51.912;4.494;2022-12-16T16:15:04;15.60;;;6.47;;
21110;SDS011;10713;51.912;4.494;2022-12-16T16:17:54;13.73;;;6.93;;
21110;SDS011;10713;51.912;4.494;2022-12-16T16:20:39;18.80;;;6.63;;
21110;SDS011;10713;51.912;4.494;2022-12-16T16:23:23;14.88;;;6.88;;
21110;SDS011;10713;51.912;4.494;2022-12-16T16:26:09;14.60;;;6.57;;
21110;SDS011;10713;51.912;4.494;2022-12-16T16:28:55;11.82;;;5.95;;
21110;SDS011;10713;51.912;4.494;2022-12-16T16:31:39;14.07;;;6.53;;
21110;SDS011;10713;51.912;4.494;2022-12-16T16:34:23;14.48;;;7.20;;
21110;SDS011;10713;51.912;4.494;2022-12-16T16:37:10;17.60;;;8.13;;
21110;SDS011;10713;51.912;4.494;2022-12-16T16:39:57;19.10;;;7.93;;
21110;SDS011;10713;51.912;4.494;2022-12-16T16:42:41;17.52;;;7.10;;
21110;SDS011;10713;51.912;4.494;2022-12-16T16:45:25;19.20;;;7.68;;
21110;SDS011;10713;51.912;4.494;2022-12-16T16:48:10;16.67;;;7.30;;
21110;SDS011;10713;51.912;4.494;2022-12-16T16:50:57;16.45;;;7.28;;
21110;SDS011;10713;51.912;4.494;2022-12-16T16:53:41;14.75;;;7.70;;
21110;SDS011;10713;51.912;4.494;2022-12-16T16:56:26;19.60;;;7.45;;
21110;SDS011;10713;51.912;4.494;2022-12-16T16:59:13;18.58;;;7.72;;
21110;SDS011;10713;51.912;4.494;2022-12-16T17:01:57;17.63;;;7.30;;
21110;SDS011;10713;51.912;4.494;2022-12-16T17:04:41;14.52;;;7.53;;
21110;SDS011;10713;51.912;4.494;2022-12-16T17:07:24;19.80;;;7.60;;
21110;SDS011;10713;51.912;4.494;2022-12-16T17:10:08;16.65;;;7.00;;
21110;SDS011;10713;51.912;4.494;2022-12-16T17:12:53;15.73;;;7.00;;
21110;SDS011;10713;51.912;4.494;2022-12-16T17:15:37;19.23;;;7.30;;
21110;SDS011;10713;51.912;4.494;2022-12-16T17:18:21;16.25;;;8.02;;
21110;SDS011;10713;51.912;4.494;2022-12-16T17:21:05;16.95;;;8.40;;
21110;SDS011;10713;51.912;4.494;2022-12-16T17:23:49;16.15;;;8.40;;
21110;SDS011;10713;51.912;4.494;2022-12-16T17:26:33;19.20;;;8.85;;
21110;SDS011;10713;51.912;4.494;2022-12-16T17:29:18;27.60;;;10.07;;
21110;SDS011;10713;51.912;4.494;2022-12-16T17:32:04;23.85;;;10.18;;
21110;SDS011;10713;51.912;4.494;2022-12-16T17:34:48;20.05;;;9.07;;
21110;SDS011;10713;51.912;4.494;2022-12-16T17:37:32;24.30;;;9.30;;
21110;SDS011;10713;51.912;4.494;2022-12-16T17:40:16;17.35;;;8.88;;
21110;SDS011;10713;51.912;4.494;2022-12-16T17:43:01;18.60;;;8.70;;
21110;SDS011;10713;51.912;4.494;2022-12-16T17:46:05;24.08;;;10.35;;
21110;SDS011;10713;51.912;4.494;2022-12-16T17:48:50;22.88;;;10.57;;
21110;SDS011;10713;51.912;4.494;2022-12-16T17:51:35;23.25;;;9.55;;
21110;SDS011;10713;51.912;4.494;2022-12-16T17:54:19;18.83;;;8.52;;
21110;SDS011;10713;51.912;4.494;2022-12-16T17:57:03;22.95;;;9.27;;
21110;SDS011;10713;51.912;4.494;2022-12-16T17:59:47;23.20;;;9.43;;
21110;SDS011;10713;51.912;4.494;2022-12-16T18:02:31;19.00;;;9.00;;
21110;SDS011;10713;51.912;4.494;2022-12-16T18:05:15;21.50;;;8.90;;
21110;SDS011;10713;51.912;4.494;2022-12-16T18:07:59;19.95;;;8.55;;
21110;SDS011;10713;51.912;4.494;2022-12-16T18:10:43;14.30;;;7.03;;
21110;SDS011;10713;51.912;4.494;2022-12-16T18:13:27;18.92;;;9.27;;
21110;SDS011;10713;51.912;4.494;2022-12-16T18:16:11;16.63;;;7.30;;
21110;SDS011;10713;51.912;4.494;2022-12-16T18:18:55;13.73;;;7.13;;
21110;SDS011;10713;51.912;4.494;2022-12-16T18:21:39;13.20;;;6.75;;